• Join FlightAware (Why Join?)
  • Login
  • US Flag 
06:08AM EST


 

Airport Tracker/Info


-or-


 

Live Flight TrackerFlight Track Log ✈ AAL832 ✈ 07-May-2013 ✈ KORD - KMIA

Flight Track Log - Related Links

Times and Time Zones

All times are in EDT time to prevent confusion due to time zone crossing. See the AAL832 flight status page for this flight to view local times or setup timezone preferences in your user account.

Time Position Orientation Groundspeed Altitude Reporting Facility
EDT Latitude Longitude Course Direction KTS MPH feet Rate Location/Type
06:06PM 41.9833 -87.8500 180° South 171 197 2,900  Level Chicago TRACON
06:07PM 41.9500 -87.7833 124° Southeast 269 310 5,100 3,000 Climbing Chicago TRACON
06:08PM 41.6620 -87.7200 166° South  Level Estimated
06:09PM 41.5554 -87.6582 166° South  Level Estimated
06:09PM 41.8214 -87.7672 175° South 291 335 11,600  Level Chicago Center
06:10PM 41.4487 -87.5966 180° South  Level Estimated
06:10PM 41.7369 -87.7561 174° South 305 351 14,700  Level Chicago Center
06:11PM 41.3420 -87.5352 180° South  Level Estimated
06:11PM 41.6153 -87.7447 176° South 372 428 17,100  Level Chicago Center
06:12PM 41.5056 -87.7350 176° South 390 449 19,900 2,520 Climbing Chicago Center
06:13PM 41.3917 -87.7250 176° South 401 461 22,400 2,160 Climbing Chicago Center
06:14PM 41.2722 -87.7267 181° South 420 483 24,400 1,980 Climbing Chicago Center
06:15PM 41.1508 -87.7225 179° South 431 496 26,600 1,920 Climbing Chicago Center
06:16PM 41.0253 -87.7039 174° South 449 517 28,500 1,860 Climbing Chicago Center
06:17PM 40.9017 -87.6833 173° South 451 519 30,500 2,220 Climbing Chicago Center
06:18PM 40.7558 -87.6383 167° South 452 520 33,100 2,100 Climbing Chicago Center
06:19PM 40.6406 -87.5800 159° South 446 513 34,900 900 Climbing Chicago Center
06:20PM 40.5303 -87.5233 159° South 431 496 35,000  Climbing Chicago Center
06:21PM 40.4169 -87.4661 159° South 437 503 35,000 600 Level Chicago Center
06:22PM 40.2886 -87.4056 160° South 435 501 36,300 960 Climbing Chicago Center
06:23PM 40.1794 -87.3497 159° South 424 488 37,000 360 Climbing Chicago Center
06:24PM 40.0875 -87.3042 159° South 431 496 37,000  Level Indianapolis Center
06:25PM 39.9733 -87.2478 159° South 441 507 37,000  Level Indianapolis Center
06:26PM 39.8592 -87.1922 160° South 440 506 37,000  Level Indianapolis Center
06:27PM 39.7222 -87.1231 159° South 443 510 37,000  Level Indianapolis Center
06:28PM 39.6078 -87.0681 160° South 442 509 37,000 300 Level Indianapolis Center
06:29PM 39.4933 -87.0117 159° South 443 510 37,700 720 Climbing Indianapolis Center
06:30PM 39.3744 -86.9550 160° South 454 522 38,500 600 Climbing Indianapolis Center
06:31PM 39.2539 -86.8964 159° South 464 534 39,000 240 Climbing Indianapolis Center
06:33PM 39.1297 -86.8308 158° South 465 535 39,000  Level Indianapolis Center
06:34PM 38.9911 -86.7358 152° Southeast 466 536 39,000  Level Indianapolis Center
06:35PM 38.8750 -86.6586 153° Southeast 466 536 39,000  Level Indianapolis Center
06:36PM 38.7586 -86.5800 152° Southeast 468 539 39,000  Level Indianapolis Center
06:37PM 38.6406 -86.5031 153° Southeast 469 540 39,000  Level Indianapolis Center
06:38PM 38.5228 -86.4261 153° Southeast 470 541 39,000  Level Indianapolis Center
06:39PM 38.4044 -86.3481 153° Southeast 472 543 39,000  Level Indianapolis Center
06:40PM 38.2861 -86.2703 153° Southeast 473 544 39,000  Level Indianapolis Center
06:41PM 38.1686 -86.1931 153° Southeast 472 543 39,000  Level Indianapolis Center
06:42PM 38.0519 -86.1128 152° Southeast 472 543 39,000  Level Indianapolis Center
06:43PM 37.9122 -86.0161 151° Southeast 472 543 39,000  Level Indianapolis Center
06:44PM 37.7958 -85.9381 152° Southeast 471 542 39,000  Level Indianapolis Center
06:45PM 37.6775 -85.8619 153° Southeast 473 544 39,000  Level Indianapolis Center
06:46PM 37.5603 -85.7847 152° Southeast 473 544 39,000  Level Indianapolis Center
06:47PM 37.4406 -85.7103 154° Southeast 475 547 39,000  Level Indianapolis Center
06:48PM 37.3225 -85.6339 153° Southeast 474 545 39,000  Level Indianapolis Center
06:49PM 37.1908 -85.5486 153° Southeast 475 547 39,000  Level Indianapolis Center
06:50PM 37.0719 -85.4753 154° Southeast 469 540 39,000  Level Indianapolis Center
06:51PM 36.9592 -85.4044 153° Southeast 474 545 39,000  Level Indianapolis Center
06:52PM 36.8167 -85.3144 153° Southeast 476 548 39,000  Level Indianapolis Center
06:53PM 36.6983 -85.2386 153° Southeast 476 548 39,000  Level Indianapolis Center
06:54PM 36.5764 -85.1731 157° South 477 549 39,000  Level Indianapolis Center
06:55PM 36.4467 -85.1417 169° South 476 548 39,000  Level Indianapolis Center
06:56PM 36.3161 -85.1094 169° South 477 549 39,000  Level Indianapolis Center
06:57PM 36.1858 -85.0764 168° South 478 550 39,000  Level Indianapolis Center
06:58PM 36.0833 -85.0536 170° South 475 547 39,000  Level Atlanta Center
06:59PM 35.9522 -85.0186 168° South 470 541 39,000  Level Atlanta Center
07:00PM 35.8211 -84.9836 168° South 475 547 39,000  Level Atlanta Center
07:01PM 35.6939 -84.9542 169° South 481 554 39,000  Level Atlanta Center
07:02PM 35.5525 -84.9169 168° South 481 554 39,000  Level Atlanta Center
07:03PM 35.4211 -84.8850 169° South 481 554 39,000  Level Atlanta Center
07:04PM 35.2919 -84.8531 169° South 481 554 39,000  Level Atlanta Center
07:05PM 35.1608 -84.8161 167° South 486 559 39,000  Level Atlanta Center
07:06PM 35.0317 -84.7819 168° South 486 559 39,000  Level Atlanta Center
07:07PM 34.9006 -84.7478 168° South 486 559 39,000  Level Atlanta Center
07:08PM 34.7711 -84.7139 168° South 486 559 39,000  Level Atlanta Center
07:09PM 34.6400 -84.6775 167° South 486 559 39,000  Level Atlanta Center
07:10PM 34.5108 -84.6489 170° South 476 548 39,000  Level Atlanta Center
07:11PM 34.3814 -84.6178 169° South 482 555 39,000  Level Atlanta Center
07:12PM 34.2500 -84.5842 168° South 482 555 39,000  Level Atlanta Center
07:13PM 34.1458 -84.5583 168° South 482 555 39,000  Level Atlanta Center
07:14PM 33.9833 -84.5222 170° South 487 560 39,000  Level Atlanta Center
07:15PM 33.8561 -84.4892 168° South 487 560 39,000  Level Atlanta Center
07:16PM 33.7206 -84.4558 168° South 487 560 39,000  Level Atlanta Center
07:17PM 33.6225 -84.4356 170° South 477 549 39,000  Level Atlanta Center
07:18PM 33.4575 -84.4297 178° South 482 555 39,000  Level Atlanta Center
07:19PM 33.3261 -84.4292 180° South 477 549 39,000  Level Atlanta Center
07:20PM 33.1947 -84.4261 179° South 477 549 39,000  Level Atlanta Center
07:21PM 33.0653 -84.4256 180° South 471 542 39,000  Level Atlanta Center
07:22PM 32.9358 -84.4225 179° South 471 542 39,000  Level Atlanta Center
07:23PM 32.8083 -84.4194 179° South 466 536 39,000  Level Atlanta Center
07:24PM 32.6936 -84.4189 180° South 460 529 39,000  Level Atlanta Center
07:25PM 32.5664 -84.4136 178° South 460 529 39,000  Level Atlanta Center
07:26PM 32.4389 -84.4131 180° South 460 529 39,000  Level Atlanta Center
07:28PM 32.2117 -84.4050 178° South 452 520 39,000  Level Jacksonville Center
07:29PM 32.0844 -84.4031 179° South 452 520 39,000  Level Jacksonville Center
07:30PM 31.9592 -84.4011 179° South 457 526 39,000  Level Jacksonville Center
07:31PM 31.8297 -84.3964 178° South 457 526 39,000  Level Jacksonville Center
07:32PM 31.7025 -84.3967 180° South 457 526 39,000  Level Jacksonville Center
07:33PM 31.5772 -84.3922 178° South 457 526 39,000  Level Jacksonville Center
07:34PM 31.4500 -84.3903 179° South 457 526 39,000  Level Jacksonville Center
07:35PM 31.3247 -84.3714 173° South 457 526 39,000  Level Jacksonville Center
07:36PM 31.2064 -84.3111 156° South 457 526 39,000  Level Jacksonville Center
07:37PM 31.0903 -84.2486 155° Southeast 457 526 39,000  Level Jacksonville Center
07:38PM 30.9697 -84.1911 158° South 463 533 39,000  Level Jacksonville Center
07:39PM 30.8492 -84.1314 157° South 468 539 39,000  Level Jacksonville Center
07:40PM 30.7286 -84.0719 157° South 473 544 39,000  Level Jacksonville Center
07:41PM 30.6122 -84.0125 156° South 473 544 39,000  Level Jacksonville Center
07:42PM 30.5000 -83.9583 157° South 460 529 39,000  Level Jacksonville Center
07:43PM 30.3817 -83.9014 157° South 455 524 39,000  Level Jacksonville Center
07:44PM 30.2608 -83.8450 158° South 455 524 39,000  Level Jacksonville Center
07:45PM 30.1422 -83.7836 156° South 455 524 39,000  Level Jacksonville Center
07:46PM 30.0236 -83.7275 158° South 461 531 39,000  Level Jacksonville Center
07:47PM 29.9031 -83.6689 157° South 461 531 39,000  Level Jacksonville Center
07:48PM 29.7864 -83.6128 157° South 461 531 39,000  Level Jacksonville Center
07:49PM 29.6761 -83.5619 158° South 467 537 39,000  Level Jacksonville Center
07:50PM 29.5594 -83.5061 157° South 467 537 39,000  Level Jacksonville Center
07:51PM 29.4386 -83.4458 157° South 467 537 39,000  Level Jacksonville Center
07:52PM 29.3156 -83.3881 158° South 472 543 39,000  Level Jacksonville Center
07:53PM 29.1928 -83.3278 157° South 472 543 39,000  Level Jacksonville Center
07:54PM 29.0656 -83.2681 158° South 477 549 39,000  Level Jacksonville Center
07:55PM 28.9425 -83.2106 158° South 477 549 39,000  Level Jacksonville Center
07:56PM 28.8194 -83.1508 157° South 477 549 39,000  Level Jacksonville Center
07:57PM 28.6967 -83.0914 157° South 477 549 39,000  Level Jacksonville Center
07:58PM 28.5756 -83.0344 158° South 477 549 39,000  Level Jacksonville Center
08:00PM 28.2944 -82.9033 158° South 479 551 39,000  Level Miami Center
08:01PM 28.1736 -82.8497 159° South 479 551 39,000  Level Miami Center
08:02PM 28.0528 -82.7917 157° South 474 545 39,000  Level Miami Center
08:03PM 27.9197 -82.7308 158° South 474 545 39,000  Level Miami Center
08:04PM 27.7986 -82.6822 160° South 466 536 39,000  Level Miami Center
08:05PM 27.6897 -82.6414 162° South 459 528 39,000  Level Miami Center
08:06PM 27.5606 -82.5881 160° South 459 528 39,000  Level Miami Center
08:07PM 27.4511 -82.5056 146° Southeast 465 535 39,000  Level Miami Center
08:08PM 27.3486 -82.4022 138° Southeast 488 562 39,000  Level Miami Center
08:09PM 27.2481 -82.3017 138° Southeast 496 571 39,000  Level Miami Center
08:10PM 27.1556 -82.2089 138° Southeast 496 571 39,000  Level Miami Center
08:11PM 27.0469 -82.0989 138° Southeast 486 559 39,000 -60 Level Miami Center
08:12PM 26.9561 -82.0133 140° Southeast 486 559 38,900 -660 Descending Miami Center
08:13PM 26.8594 -81.9158 138° Southeast 481 554 37,700 -960 Descending Miami Center
08:14PM 26.7625 -81.8186 138° Southeast 475 547 37,000 -540 Descending Miami Center
08:15PM 26.6633 -81.7217 139° Southeast 470 541 36,700 -1,680 Descending Miami Center
08:16PM 26.5606 -81.6175 138° Southeast 460 529 33,700 -3,300 Descending Miami Center
08:17PM 26.4672 -81.5256 139° Southeast 467 537 30,200 -3,300 Descending Miami Center
08:18PM 26.3642 -81.4219 138° Southeast 488 562 27,100 -3,300 Descending Miami Center
08:19PM 26.2606 -81.3253 140° Southeast 493 567 23,700 -3,300 Descending Miami Center
08:20PM 26.1633 -81.2267 138° Southeast 493 567 20,600 -3,180 Descending Miami Center
08:21PM 26.0597 -81.1281 139° Southeast 450 518 17,400 -2,400 Descending Miami Center
08:22PM 25.9744 -81.0467 139° Southeast 437 503 16,000 -1,080 Descending Miami Center
08:23PM 25.8956 -80.9606 136° Southeast 431 496 15,300 -1,140 Descending Miami Center
08:24PM 25.8547 -80.8508 112° Southeast 387 445 13,700 -1,800 Descending Miami Center
08:25PM 25.8578 -80.7378 88° East 353 406 11,800 -1,800 Descending Miami Center
08:26PM 25.8625 -80.6272 87° East 353 406 10,200 -900 Descending Miami Center
08:27PM 25.8294 -80.5408 113° Southeast 329 379 10,000 -180 Descending Miami Center
08:27PM 25.8092 -80.5147 131° Southeast 280 322 10,000  Level Miami Center
08:28PM 25.7872 -80.4656 116° Southeast 297 342 10,000  Level Miami Center
08:28PM 25.7650 -80.4350 129° Southeast 287 330 10,000 -720 Level Miami Center
08:29PM 25.7475 -80.3883 113° Southeast 292 336 9,300 -1,440 Descending Miami Center
08:30PM 25.7033 -80.3086 122° Southeast 286 329 7,600 -1,860 Descending Miami Center
08:30PM 25.6911 -80.2922 130° Southeast 273 314 7,000 -2,160 Descending Miami Center
08:31PM 25.6556 -80.2128 116° Southeast 264 304 4,700 -1,800 Descending Miami Center
08:32PM 25.6258 -80.1406 115° Southeast 254 292 3,200 -900 Descending Miami Center
08:33PM 25.6686 -80.0933 45° Northeast 242 278 3,000 -120 Descending Miami Center
08:34PM 25.7114 -80.1406 315° West 214 246 3,000  Level Miami Center